Wuhan Tianhe International Airport
ZHHH : now visible

Airfield :











YOU CAN JOIN US ON...

 
LOGIN :

Register | Disclaimer

   EN    FR    IT 

 









Legend :    VFR   Marginal VFR   IFR   Intensive IFR   Very Intensive IFR
Visi :
Ceiling :
>= 8 km
>= 3000ft
5 to 8 km
1000 to 3000 ft
1500m to 5 km
500 to 1000 ft
800 to 1500m
200 to 500 ft
< 800m
< 200 ft
Symbols :   Thunderstorms  Fog  Heavy snow  Heavy precipitations  Wind > 20 kt







- Airport Elevation : 113 ft
- IATA code : WUH


ZHHH - Wuhan Tianhe International

CURRENT METAR :
  • 210900Z 01005MPS 330V050 9999 FEW026 29/10 Q1014 NOSIG

EXPIRED METARs :
  • 210800Z 02005MPS 320V060 9999 FEW026 30/10 Q1014 NOSIG
  • 210700Z 02006MPS 340V060 9999 FEW026TCU FEW026 30/10 Q1014 NOSIG

TAF TAF ZHHH
Valid from the 21 at 06:00 until the 22 at 06:00 UTC


210307Z 2106/2206 03004G09MPS 6000 NSC TX29/2107Z TN18/2122Z
No reported NOTAMs for that airfield.



MET'MAP, your aeronautical weather chart ! - Copyright ORBIFLY December 2007 - Disclaimer

ORBIFLY MET'MAP TEAM :

Programming & Development : Alexandra Zaïnal
Concept & Development : Baudouin d'Aumeries
Co-Development & Prog : Marc-Olivier Méhu
Technical & hardware support : Manuel Goepfert

Contact : metmap@orbifly.com




SOURCES & CREDITS :

   NOAA       Earth
Advisory